Time;durP1;ratioP1;P1;durP2;ratioP2;P2;SDS_P1;SDS_P2;PMS_P1;PMS_P2;Temp;Humidity;BMP_temperature;BMP_pressure;BME280_temperature;BME280_humidity;BME280_pressure;Samples;Min_cycle;Max_cycle;Signal;HPM_P1;HPM_P2
2022/10/09 00:00:22;;;;;;;15.40;6.85;;;8.10;99.90;;;;;;5076949;28;20095;-46
2022/10/09 00:02:48;;;;;;;12.35;5.72;;;8.00;99.90;;;;;;5072763;28;20499;-48
2022/10/09 00:05:14;;;;;;;11.60;6.07;;;7.90;99.90;;;;;;5080393;28;20082;-49
2022/10/09 00:07:40;;;;;;;13.88;5.88;;;7.90;99.90;;;;;;5079805;28;20056;-46
2022/10/09 00:10:06;;;;;;;13.02;5.90;;;7.90;99.90;;;;;;5074944;28;20535;-46
2022/10/09 00:12:32;;;;;;;12.43;6.85;;;7.80;99.90;;;;;;5078156;28;20052;-49
2022/10/09 00:14:58;;;;;;;13.98;6.55;;;7.90;99.90;;;;;;5075928;28;20048;-48
2022/10/09 00:17:24;;;;;;;12.30;5.90;;;7.80;99.90;;;;;;5061036;28;20601;-46
2022/10/09 00:19:50;;;;;;;14.30;5.82;;;7.80;99.90;;;;;;5077741;28;20608;-45
2022/10/09 00:22:16;;;;;;;13.82;6.30;;;7.80;99.90;;;;;;5043580;28;20127;-46
2022/10/09 00:24:43;;;;;;;12.52;5.93;;;7.80;99.90;;;;;;5076423;28;20056;-47
2022/10/09 00:27:09;;;;;;;12.60;6.07;;;7.70;99.90;;;;;;5078266;28;20055;-46
2022/10/09 00:29:35;;;;;;;14.68;6.75;;;7.70;99.90;;;;;;5057225;28;20056;-49
2022/10/09 00:32:01;;;;;;;9.98;6.07;;;7.70;99.90;;;;;;5072249;28;20089;-50
2022/10/09 00:34:27;;;;;;;14.32;6.25;;;7.70;99.90;;;;;;5079272;28;20055;-46
2022/10/09 00:36:53;;;;;;;11.80;6.88;;;7.70;99.90;;;;;;5075291;28;20052;-45
2022/10/09 00:39:19;;;;;;;11.45;6.20;;;7.70;99.90;;;;;;5079756;28;20506;-45
2022/10/09 00:41:45;;;;;;;12.68;7.55;;;7.60;99.90;;;;;;5074224;28;20048;-47
2022/10/09 00:44:56;;;;;;;13.35;6.40;;;7.60;99.90;;;;;;5072134;28;20054;-41
2022/10/09 00:48:03;;;;;;;10.30;6.57;;;7.50;99.90;;;;;;5073755;28;20086;-43
2022/10/09 00:50:51;;;;;;;11.13;7.10;;;7.50;99.90;;;;;;5019102;28;20884;-42
2022/10/09 00:53:20;;;;;;;12.15;6.53;;;7.50;99.90;;;;;;5023265;28;20119;-42
2022/10/09 00:55:46;;;;;;;10.73;6.85;;;7.50;99.90;;;;;;5053424;28;20104;-41
2022/10/09 00:58:13;;;;;;;10.48;6.07;;;7.40;99.90;;;;;;5077566;28;20372;-41
2022/10/09 01:00:40;;;;;;;14.65;6.97;;;7.40;99.90;;;;;;5058905;28;20059;-40
2022/10/09 01:03:06;;;;;;;9.25;6.38;;;7.30;99.90;;;;;;5074685;28;20085;-41
2022/10/09 01:06:18;;;;;;;9.65;6.03;;;7.30;99.90;;;;;;5078135;28;20395;-41
2022/10/09 01:08:50;;;;;;;11.85;5.85;;;7.30;99.90;;;;;;5078723;28;20051;-42
2022/10/09 01:11:40;;;;;;;11.40;6.18;;;7.30;99.90;;;;;;5073101;28;20048;-42
2022/10/09 01:14:36;;;;;;;10.90;6.13;;;7.30;99.90;;;;;;5072697;28;20248;-43
2022/10/09 01:17:16;;;;;;;11.73;6.53;;;7.30;99.90;;;;;;5079095;28;20059;-46
2022/10/09 01:20:23;;;;;;;9.48;5.95;;;7.20;99.90;;;;;;5080897;28;20467;-41
2022/10/09 01:23:26;;;;;;;11.40;7.20;;;7.20;99.90;;;;;;5076394;28;20051;-49
2022/10/09 01:26:04;;;;;;;14.10;7.75;;;7.10;99.90;;;;;;5081377;28;20059;-46
2022/10/09 01:28:35;;;;;;;10.30;6.93;;;7.10;99.90;;;;;;5083377;28;20430;-47
2022/10/09 01:31:04;;;;;;;15.98;7.53;;;7.10;99.90;;;;;;5077770;28;20040;-49
2022/10/09 01:33:32;;;;;;;10.25;6.63;;;7.10;99.90;;;;;;5075549;28;20080;-48
2022/10/09 01:35:59;;;;;;;12.27;7.20;;;7.00;99.90;;;;;;5079835;28;20043;-48
2022/10/09 01:38:27;;;;;;;9.65;7.43;;;7.00;99.90;;;;;;5062759;28;20044;-47
2022/10/09 01:40:54;;;;;;;10.63;6.80;;;7.00;99.90;;;;;;5070047;28;20044;-40
2022/10/09 01:43:20;;;;;;;12.73;7.78;;;7.00;99.90;;;;;;5079392;28;20103;-41
2022/10/09 01:45:48;;;;;;;12.32;7.80;;;7.00;99.90;;;;;;5064991;28;20040;-43
2022/10/09 01:48:23;;;;;;;11.00;7.25;;;7.00;99.90;;;;;;5082424;28;20040;-47
2022/10/09 01:50:56;;;;;;;14.32;7.43;;;7.00;99.90;;;;;;5078899;28;20119;-46
2022/10/09 01:53:24;;;;;;;14.05;7.60;;;6.90;99.90;;;;;;5076742;28;20048;-46
2022/10/09 01:56:08;;;;;;;14.93;8.02;;;6.90;99.90;;;;;;5081672;28;20055;-46
2022/10/09 01:58:46;;;;;;;11.65;7.18;;;6.90;99.90;;;;;;5034468;28;20052;-40
2022/10/09 02:01:20;;;;;;;14.27;7.90;;;6.80;99.90;;;;;;5074170;28;20098;-41
2022/10/09 02:03:50;;;;;;;12.90;7.50;;;6.90;99.90;;;;;;5064548;28;20044;-39
2022/10/09 02:06:18;;;;;;;10.85;7.60;;;6.80;99.90;;;;;;5078220;28;20541;-42
2022/10/09 02:08:53;;;;;;;14.55;8.07;;;6.80;99.90;;;;;;5081617;28;20063;-41
2022/10/09 02:11:20;;;;;;;13.25;7.45;;;6.70;99.90;;;;;;5079341;28;20044;-41
2022/10/09 02:13:51;;;;;;;9.93;6.50;;;6.70;99.90;;;;;;5078138;28;20074;-43
2022/10/09 02:16:34;;;;;;;13.93;7.83;;;6.70;99.90;;;;;;5077939;28;20051;-42
2022/10/09 02:19:09;;;;;;;12.68;6.68;;;6.60;99.90;;;;;;5081055;28;20052;-41
2022/10/09 02:21:49;;;;;;;10.23;7.03;;;6.60;99.90;;;;;;5076603;28;20058;-41
2022/10/09 02:24:19;;;;;;;10.35;7.53;;;6.60;99.90;;;;;;5080104;28;20131;-45
2022/10/09 02:26:46;;;;;;;11.40;6.90;;;6.60;99.90;;;;;;5081051;28;20066;-43
2022/10/09 02:29:13;;;;;;;13.50;6.72;;;6.60;99.90;;;;;;5081120;28;20111;-41
2022/10/09 02:31:41;;;;;;;10.02;7.53;;;6.60;99.90;;;;;;5079005;28;20054;-41
2022/10/09 02:34:10;;;;;;;11.95;6.57;;;6.60;99.90;;;;;;5075117;28;20048;-42
2022/10/09 02:36:37;;;;;;;9.80;6.55;;;6.60;99.90;;;;;;5081285;28;20119;-41
2022/10/09 02:39:08;;;;;;;10.55;6.90;;;6.50;99.90;;;;;;5042320;28;20053;-41
2022/10/09 02:41:35;;;;;;;11.55;7.00;;;6.50;99.90;;;;;;5075433;28;20063;-42
2022/10/09 02:44:03;;;;;;;10.80;7.03;;;6.50;99.90;;;;;;5082011;28;20225;-45
2022/10/09 02:46:29;;;;;;;12.60;7.15;;;6.50;99.90;;;;;;5074914;28;20055;-42
2022/10/09 02:48:55;;;;;;;11.82;6.63;;;6.50;99.90;;;;;;5076892;28;20052;-40
2022/10/09 02:51:21;;;;;;;12.07;7.35;;;6.50;99.90;;;;;;5078312;28;20062;-40
2022/10/09 02:53:49;;;;;;;12.02;6.82;;;6.40;99.90;;;;;;5080174;28;20048;-40
2022/10/09 02:56:16;;;;;;;9.57;6.53;;;6.40;99.90;;;;;;5077849;28;20062;-41
2022/10/09 02:58:42;;;;;;;9.85;6.93;;;6.40;99.90;;;;;;5049939;28;20040;-40
2022/10/09 03:01:08;;;;;;;11.00;7.90;;;6.40;99.90;;;;;;5064454;28;20128;-40
2022/10/09 03:03:34;;;;;;;9.75;6.72;;;6.40;99.90;;;;;;5076448;28;20464;-41
2022/10/09 03:06:05;;;;;;;10.27;5.82;;;6.40;99.90;;;;;;5077403;28;20472;-49
2022/10/09 03:08:31;;;;;;;9.80;6.03;;;6.40;99.90;;;;;;5036627;28;20605;-46
2022/10/09 03:10:57;;;;;;;11.18;7.40;;;6.30;99.90;;;;;;5079668;28;20513;-46
2022/10/09 03:13:24;;;;;;;9.60;6.85;;;6.30;99.90;;;;;;5080112;28;20739;-46
2022/10/09 03:15:50;;;;;;;9.05;6.82;;;6.30;99.90;;;;;;5076970;28;20063;-47
2022/10/09 03:18:16;;;;;;;11.23;6.20;;;6.30;99.90;;;;;;5078417;28;20056;-45
2022/10/09 03:20:42;;;;;;;10.02;6.03;;;6.30;99.90;;;;;;5076420;28;20778;-42
2022/10/09 03:23:08;;;;;;;10.15;6.72;;;6.20;99.90;;;;;;5077546;28;20048;-45
2022/10/09 03:25:34;;;;;;;11.20;6.30;;;6.20;99.90;;;;;;5061984;28;20044;-46
2022/10/09 03:28:00;;;;;;;8.05;5.80;;;6.20;99.90;;;;;;5081222;28;20082;-40
2022/10/09 03:30:26;;;;;;;11.88;6.20;;;6.20;99.90;;;;;;5072181;28;20047;-47
2022/10/09 03:32:52;;;;;;;8.73;6.28;;;6.10;99.90;;;;;;5079414;28;20051;-45
2022/10/09 03:35:18;;;;;;;9.05;6.13;;;6.10;99.90;;;;;;5076910;28;20066;-46
2022/10/09 03:37:45;;;;;;;11.77;6.00;;;6.00;99.90;;;;;;5077192;28;20477;-41
2022/10/09 03:40:11;;;;;;;9.57;6.90;;;6.00;99.90;;;;;;5055982;28;20127;-41
2022/10/09 03:42:37;;;;;;;10.48;6.63;;;6.00;99.90;;;;;;5078452;28;20055;-40
2022/10/09 03:45:05;;;;;;;9.60;6.38;;;6.00;99.90;;;;;;5081366;28;20055;-41
2022/10/09 03:47:31;;;;;;;8.45;6.50;;;6.00;99.90;;;;;;5056146;28;20200;-41
2022/10/09 03:49:57;;;;;;;9.75;6.35;;;6.00;99.90;;;;;;5062563;28;20050;-45
2022/10/09 03:52:23;;;;;;;10.52;6.78;;;6.00;99.90;;;;;;5046265;28;20083;-45
2022/10/09 03:54:49;;;;;;;9.10;6.13;;;6.00;99.90;;;;;;5079653;28;20053;-39
2022/10/09 03:57:15;;;;;;;9.60;6.55;;;6.00;99.90;;;;;;5076673;28;20536;-41
2022/10/09 03:59:41;;;;;;;10.18;6.38;;;5.90;99.90;;;;;;5077265;28;20296;-40
2022/10/09 04:02:07;;;;;;;8.63;6.15;;;5.90;99.90;;;;;;5043709;28;20129;-39
2022/10/09 04:04:33;;;;;;;9.80;6.72;;;5.90;99.90;;;;;;5090101;28;20044;-39
2022/10/09 04:06:59;;;;;;;9.73;5.60;;;5.90;99.90;;;;;;5062990;28;20048;-39
2022/10/09 04:09:26;;;;;;;10.93;6.28;;;5.80;99.90;;;;;;5077517;28;20043;-40
2022/10/09 04:11:52;;;;;;;8.30;6.35;;;5.80;99.90;;;;;;5056330;28;20097;-40
2022/10/09 04:14:18;;;;;;;9.82;6.20;;;5.80;99.90;;;;;;5076696;28;20044;-40
2022/10/09 04:16:44;;;;;;;10.52;6.30;;;5.80;99.90;;;;;;5043832;28;20459;-45
2022/10/09 04:19:11;;;;;;;7.88;6.00;;;5.80;99.90;;;;;;5041316;28;20117;-47
2022/10/09 04:21:37;;;;;;;10.20;7.32;;;5.80;99.90;;;;;;5074862;28;20106;-45
2022/10/09 04:24:03;;;;;;;11.23;7.38;;;5.80;99.90;;;;;;5079731;28;20193;-44
2022/10/09 04:26:29;;;;;;;9.25;6.25;;;5.80;99.90;;;;;;5074169;28;20048;-46
2022/10/09 04:28:55;;;;;;;8.80;5.85;;;5.80;99.90;;;;;;5077197;28;20673;-44
2022/10/09 04:31:21;;;;;;;9.82;5.97;;;5.70;99.90;;;;;;5061941;28;20067;-48
2022/10/09 04:33:48;;;;;;;7.90;5.18;;;5.70;99.90;;;;;;5078784;28;20093;-46
2022/10/09 04:36:14;;;;;;;8.00;5.28;;;5.70;99.90;;;;;;5060557;28;20143;-45
2022/10/09 04:38:40;;;;;;;6.68;4.72;;;5.60;99.90;;;;;;5063384;28;20048;-47
2022/10/09 04:41:07;;;;;;;6.15;4.78;;;5.50;99.90;;;;;;5055668;28;20037;-40
2022/10/09 04:43:34;;;;;;;6.88;4.32;;;5.50;99.90;;;;;;5076231;28;20081;-40
2022/10/09 04:46:09;;;;;;;5.63;5.00;;;5.40;99.90;;;;;;5068549;28;20040;-39
2022/10/09 04:48:43;;;;;;;6.65;4.55;;;5.50;99.90;;;;;;5073196;28;20053;-40
2022/10/09 04:51:10;;;;;;;6.78;5.13;;;5.40;99.90;;;;;;5040745;28;20047;-39
2022/10/09 04:53:38;;;;;;;6.15;4.95;;;5.40;99.90;;;;;;5074011;28;20044;-39
2022/10/09 04:56:10;;;;;;;7.60;4.70;;;5.40;99.90;;;;;;5055805;28;20048;-39
2022/10/09 04:58:39;;;;;;;;;;;5.40;99.90;;;;;;5072272;28;20583;-39
2022/10/09 05:01:15;;;;;;;6.68;4.60;;;5.40;99.90;;;;;;5074261;28;19962;-39
2022/10/09 05:03:41;;;;;;;5.90;4.72;;;5.30;99.90;;;;;;5074669;28;20044;-41
2022/10/09 05:06:09;;;;;;;8.00;5.00;;;5.30;99.90;;;;;;5076008;28;20047;-40
2022/10/09 05:08:36;;;;;;;6.45;5.03;;;5.40;99.90;;;;;;5071461;28;20063;-41
2022/10/09 05:11:08;;;;;;;8.40;5.65;;;5.30;99.90;;;;;;5073178;28;20097;-42
2022/10/09 05:13:37;;;;;;;8.52;5.72;;;5.30;99.90;;;;;;5071920;28;20056;-41
2022/10/09 05:16:06;;;;;;;7.63;5.88;;;5.30;99.90;;;;;;5067329;28;20153;-41
2022/10/09 05:18:34;;;;;;;7.95;5.90;;;5.30;99.90;;;;;;5071889;28;20502;-40
2022/10/09 05:21:04;;;;;;;7.78;5.22;;;5.30;99.90;;;;;;5077626;28;20047;-40
2022/10/09 05:23:34;;;;;;;8.10;5.45;;;5.30;99.90;;;;;;5073399;28;20051;-40
2022/10/09 05:26:07;;;;;;;9.25;6.47;;;5.30;99.90;;;;;;5079077;28;20152;-40
2022/10/09 05:28:34;;;;;;;9.20;7.15;;;5.30;99.90;;;;;;5072809;28;20347;-40
2022/10/09 05:31:03;;;;;;;8.77;6.55;;;5.30;99.90;;;;;;5072641;28;20052;-44
2022/10/09 05:33:30;;;;;;;9.75;7.60;;;5.30;99.90;;;;;;5072661;28;20048;-40
2022/10/09 05:35:58;;;;;;;9.98;7.38;;;5.30;99.90;;;;;;5094039;28;20121;-45
2022/10/09 05:38:25;;;;;;;7.60;6.68;;;5.30;99.90;;;;;;5055761;28;20234;-47
2022/10/09 05:40:57;;;;;;;7.60;6.18;;;5.40;99.90;;;;;;5072568;28;20040;-39
2022/10/09 05:43:28;;;;;;;6.97;6.07;;;5.30;99.90;;;;;;5070534;28;20784;-40
2022/10/09 05:45:55;;;;;;;8.95;6.75;;;5.30;99.90;;;;;;5075180;28;20127;-40
2022/10/09 05:48:21;;;;;;;7.47;6.43;;;5.30;99.90;;;;;;5076594;28;20101;-41
2022/10/09 05:50:47;;;;;;;9.05;6.22;;;5.30;99.90;;;;;;5072162;28;20055;-41
2022/10/09 05:53:14;;;;;;;9.00;7.25;;;5.30;99.90;;;;;;5072334;28;20079;-42
2022/10/09 05:55:40;;;;;;;7.70;6.90;;;5.20;99.90;;;;;;5072884;28;20047;-40
2022/10/09 05:58:07;;;;;;;9.30;6.22;;;5.20;99.90;;;;;;5074655;28;21116;-40
2022/10/09 06:00:33;;;;;;;8.25;6.60;;;5.20;99.90;;;;;;5055712;28;20036;-40
2022/10/09 06:03:02;;;;;;;7.50;6.20;;;5.20;99.90;;;;;;5043163;28;20048;-40
2022/10/09 06:05:29;;;;;;;11.60;6.57;;;5.30;99.90;;;;;;5070809;28;20059;-40
2022/10/09 06:07:55;;;;;;;8.85;6.65;;;5.30;99.90;;;;;;5074947;28;20104;-40
2022/10/09 06:10:21;;;;;;;7.57;6.63;;;5.30;99.90;;;;;;5074047;28;20052;-41
2022/10/09 06:12:47;;;;;;;11.23;8.07;;;5.30;99.90;;;;;;5076267;28;20044;-45
2022/10/09 06:15:14;;;;;;;10.75;8.27;;;5.30;99.90;;;;;;5071910;28;20121;-49
2022/10/09 06:17:40;;;;;;;9.60;7.72;;;5.40;99.90;;;;;;5072845;28;20063;-46
2022/10/09 06:20:07;;;;;;;9.05;7.20;;;5.40;99.90;;;;;;5074672;28;20048;-46
2022/10/09 06:22:33;;;;;;;10.02;7.55;;;5.40;99.90;;;;;;5071274;28;20043;-45
2022/10/09 06:24:59;;;;;;;13.10;9.32;;;5.40;99.90;;;;;;5073494;28;20130;-48
2022/10/09 06:27:27;;;;;;;9.45;7.93;;;5.50;99.90;;;;;;5071188;28;20093;-50
2022/10/09 06:29:54;;;;;;;9.63;7.28;;;5.60;99.90;;;;;;5073848;28;20165;-40
2022/10/09 06:32:21;;;;;;;10.23;7.63;;;5.60;99.90;;;;;;5071461;28;20491;-40
2022/10/09 06:34:47;;;;;;;10.95;7.60;;;5.60;99.90;;;;;;5037588;28;20044;-48
2022/10/09 06:37:13;;;;;;;12.38;8.57;;;5.70;99.90;;;;;;5068088;28;20692;-49
2022/10/09 06:39:40;;;;;;;13.07;9.13;;;5.80;99.90;;;;;;5043935;28;20047;-45
2022/10/09 06:42:06;;;;;;;10.90;9.05;;;5.80;99.90;;;;;;5059880;28;20514;-46
2022/10/09 06:44:49;;;;;;;12.07;8.48;;;5.80;99.90;;;;;;5072651;28;20053;-48
2022/10/09 06:47:15;;;;;;;12.05;8.40;;;5.90;99.90;;;;;;5071535;28;20094;-47
2022/10/09 06:49:42;;;;;;;10.45;8.88;;;6.00;99.90;;;;;;5073802;28;20124;-47
2022/10/09 06:52:08;;;;;;;11.23;9.50;;;6.00;99.90;;;;;;5056924;28;20044;-46
2022/10/09 06:54:34;;;;;;;11.07;8.57;;;6.10;99.90;;;;;;5070415;28;20486;-47
2022/10/09 06:57:01;;;;;;;13.30;9.18;;;6.20;99.90;;;;;;5073957;28;20450;-46
2022/10/09 06:59:27;;;;;;;12.25;10.55;;;6.30;99.90;;;;;;5076764;28;20044;-40
2022/10/09 07:01:55;;;;;;;13.30;9.90;;;6.40;99.90;;;;;;5054961;28;20063;-41
2022/10/09 07:04:21;;;;;;;14.85;9.75;;;6.50;99.90;;;;;;5047519;28;20044;-39
2022/10/09 07:06:48;;;;;;;12.70;10.30;;;6.60;99.90;;;;;;5051339;28;20840;-40
2022/10/09 07:09:15;;;;;;;15.15;9.68;;;6.80;99.90;;;;;;5054789;28;20048;-40
2022/10/09 07:11:45;;;;;;;14.27;11.00;;;7.00;99.90;;;;;;5058577;28;20056;-41
2022/10/09 07:14:13;;;;;;;13.63;10.30;;;7.20;99.90;;;;;;5071280;28;20074;-40
2022/10/09 07:16:42;;;;;;;15.32;10.63;;;7.30;99.90;;;;;;5052410;28;20383;-43
2022/10/09 07:19:11;;;;;;;14.67;9.90;;;7.60;99.90;;;;;;5052169;28;20051;-41
2022/10/09 07:21:39;;;;;;;10.25;8.77;;;7.80;99.90;;;;;;5069944;28;20056;-41
2022/10/09 07:24:06;;;;;;;12.57;8.23;;;8.10;99.90;;;;;;5069044;28;20044;-40
2022/10/09 07:26:35;;;;;;;11.80;8.88;;;8.40;99.90;;;;;;5067398;28;20043;-40
2022/10/09 07:29:04;;;;;;;9.82;7.55;;;8.70;99.90;;;;;;5073842;28;20148;-47
2022/10/09 07:31:30;;;;;;;13.05;7.85;;;9.10;99.90;;;;;;5051406;28;20082;-48
2022/10/09 07:33:58;;;;;;;12.57;8.23;;;9.50;99.90;;;;;;5051747;28;20407;-47
2022/10/09 07:36:24;;;;;;;11.98;7.47;;;9.90;99.90;;;;;;5069574;28;20328;-49
2022/10/09 07:38:53;;;;;;;8.70;6.63;;;10.10;99.90;;;;;;5071502;28;20059;-52
2022/10/09 07:41:20;;;;;;;9.90;6.68;;;10.50;99.90;;;;;;5073814;28;20048;-48
2022/10/09 07:43:47;;;;;;;8.90;6.65;;;10.90;99.90;;;;;;5068717;28;20135;-52
2022/10/09 07:46:16;;;;;;;9.93;6.10;;;11.30;99.90;;;;;;5035241;28;20062;-47
2022/10/09 07:48:42;;;;;;;8.85;5.93;;;11.60;99.90;;;;;;5082744;28;20052;-48
2022/10/09 07:51:12;;;;;;;9.82;5.70;;;12.10;99.90;;;;;;5070725;28;20114;-47
2022/10/09 07:53:39;;;;;;;9.85;5.97;;;12.60;99.90;;;;;;5065185;28;20052;-49
2022/10/09 07:56:06;;;;;;;9.25;5.68;;;12.90;99.90;;;;;;5063601;28;20054;-44
2022/10/09 07:58:32;;;;;;;10.00;6.00;;;13.50;99.90;;;;;;5048627;28;20091;-43
2022/10/09 08:01:06;;;;;;;11.02;5.75;;;14.10;99.90;;;;;;5072336;28;20051;-44
2022/10/09 08:03:33;;;;;;;9.43;5.32;;;14.50;99.90;;;;;;5069126;28;20356;-43
2022/10/09 08:05:59;;;;;;;12.10;6.25;;;14.80;99.90;;;;;;5065747;28;20048;-49
2022/10/09 08:08:25;;;;;;;10.30;5.53;;;15.40;99.90;;;;;;5065699;28;20052;-48
2022/10/09 08:10:52;;;;;;;8.88;5.30;;;15.70;99.90;;;;;;5065370;28;20076;-46
2022/10/09 08:13:18;;;;;;;9.05;5.72;;;15.90;99.90;;;;;;5068782;28;20048;-45
2022/10/09 08:15:44;;;;;;;10.07;5.50;;;16.00;99.90;;;;;;5065731;28;20842;-51
2022/10/09 08:18:11;;;;;;;11.32;5.13;;;16.00;99.90;;;;;;5070559;28;20451;-50
2022/10/09 08:20:38;;;;;;;9.05;5.53;;;16.30;99.90;;;;;;5069304;28;20071;-49
2022/10/09 08:23:04;;;;;;;8.15;4.82;;;16.60;99.90;;;;;;5073367;28;20468;-51
2022/10/09 08:25:35;;;;;;;10.30;5.47;;;17.00;99.90;;;;;;5075755;28;20040;-48
2022/10/09 08:28:02;;;;;;;6.57;4.65;;;17.00;99.90;;;;;;5049935;28;20047;-46
2022/10/09 08:30:28;;;;;;;9.82;5.20;;;17.40;99.90;;;;;;5070881;28;20048;-45
2022/10/09 08:32:54;;;;;;;11.05;5.45;;;17.40;99.90;;;;;;5069374;28;20134;-45
2022/10/09 08:35:20;;;;;;;7.93;5.03;;;17.60;99.90;;;;;;5049415;28;20501;-43
2022/10/09 08:37:46;;;;;;;10.95;5.25;;;17.60;99.90;;;;;;5073861;28;20054;-46
2022/10/09 08:40:44;;;;;;;11.52;5.03;;;17.50;99.90;;;;;;5071526;28;20163;-50
2022/10/09 08:43:16;;;;;;;8.63;5.55;;;17.40;99.90;;;;;;5076819;28;20589;-49
2022/10/09 08:45:45;;;;;;;10.02;5.15;;;17.40;99.90;;;;;;5070077;28;20134;-50
2022/10/09 08:48:19;;;;;;;8.82;5.60;;;17.90;99.90;;;;;;5056562;28;22463;-49
2022/10/09 08:50:54;;;;;;;7.55;4.75;;;17.80;99.90;;;;;;5052497;28;20653;-49
2022/10/09 08:53:37;;;;;;;9.43;5.20;;;18.40;99.90;;;;;;5033836;28;20059;-46
2022/10/09 08:56:09;;;;;;;8.10;5.28;;;19.20;99.90;;;;;;5064145;28;20690;-48
2022/10/09 08:58:38;;;;;;;7.05;4.45;;;19.30;99.90;;;;;;5079211;28;20087;-47
2022/10/09 09:01:37;;;;;;;9.02;4.70;;;19.40;99.90;;;;;;5077912;28;20035;-48
2022/10/09 09:04:10;;;;;;;8.73;5.03;;;19.50;99.90;;;;;;5074596;28;20629;-48
2022/10/09 09:07:01;;;;;;;9.70;4.82;;;19.70;99.90;;;;;;5075301;28;20043;-47
2022/10/09 09:09:33;;;;;;;11.07;4.67;;;20.20;99.90;;;;;;5077915;28;20067;-50
2022/10/09 09:12:22;;;;;;;9.98;5.82;;;20.60;99.90;;;;;;5056831;28;20129;-50
2022/10/09 09:15:02;;;;;;;9.60;4.60;;;20.90;99.90;;;;;;5037439;28;20482;-47
2022/10/09 09:17:45;;;;;;;6.97;3.90;;;20.70;99.90;;;;;;5070161;28;20051;-49
2022/10/09 09:20:26;;;;;;;8.82;4.32;;;20.80;99.90;;;;;;5070926;28;20075;-47
2022/10/09 09:22:52;;;;;;;9.63;4.60;;;21.20;99.90;;;;;;5075347;28;20491;-51
2022/10/09 09:25:25;;;;;;;7.80;4.13;;;21.70;99.90;;;;;;5076573;28;20112;-49
2022/10/09 09:28:00;;;;;;;7.75;4.22;;;22.10;99.90;;;;;;5067324;28;20084;-49
2022/10/09 09:30:43;;;;;;;6.75;3.70;;;22.20;98.60;;;;;;5071064;28;20502;-48
2022/10/09 09:33:28;;;;;;;9.27;4.10;;;21.30;97.50;;;;;;5058161;28;20129;-51
2022/10/09 09:36:26;;;;;;;8.20;3.85;;;21.60;96.50;;;;;;5071989;28;20150;-45
2022/10/09 09:38:53;;;;;;;8.48;3.53;;;21.80;95.00;;;;;;5077482;28;20043;-45
2022/10/09 09:41:19;;;;;;;7.32;3.08;;;21.20;96.70;;;;;;5074704;28;20048;-43
2022/10/09 09:43:45;;;;;;;7.95;3.33;;;22.20;96.80;;;;;;5077441;28;20560;-41
2022/10/09 09:46:18;;;;;;;8.48;3.78;;;22.10;95.60;;;;;;5070450;28;20052;-44
2022/10/09 09:48:47;;;;;;;8.10;3.63;;;22.50;93.90;;;;;;5075901;28;20080;-43
2022/10/09 09:51:17;;;;;;;10.15;4.03;;;22.80;93.40;;;;;;5084833;28;20139;-47
2022/10/09 09:54:14;;;;;;;11.52;6.85;;;22.50;90.90;;;;;;5077511;28;20075;-44
2022/10/09 09:56:43;;;;;;;9.05;3.53;;;22.50;91.70;;;;;;5058160;28;20052;-43
2022/10/09 09:59:25;;;;;;;10.90;6.50;;;23.10;91.80;;;;;;5075444;28;20110;-53
2022/10/09 10:02:13;;;;;;;8.55;3.28;;;22.80;91.20;;;;;;5071887;28;20052;-51
2022/10/09 10:04:52;;;;;;;8.70;3.45;;;23.50;90.50;;;;;;5063923;28;20048;-51
2022/10/09 10:07:33;;;;;;;8.57;3.63;;;23.40;89.20;;;;;;5076110;28;20052;-49
2022/10/09 10:10:18;;;;;;;8.75;3.53;;;24.00;89.90;;;;;;5072884;28;20055;-52
2022/10/09 10:12:55;;;;;;;8.57;3.35;;;23.70;85.10;;;;;;5075161;28;20052;-48
2022/10/09 10:15:27;;;;;;;8.27;3.50;;;24.10;84.80;;;;;;5073321;28;22219;-48
2022/10/09 10:18:01;;;;;;;5.95;3.22;;;24.10;82.80;;;;;;5074631;28;20055;-51
2022/10/09 10:20:43;;;;;;;8.70;3.17;;;24.70;79.60;;;;;;5076253;28;20052;-50
2022/10/09 10:23:38;;;;;;;;;;;24.80;80.40;;;;;;5062134;28;20050;-47
2022/10/09 10:26:23;;;;;;;8.32;2.65;;;24.50;71.70;;;;;;5056189;28;20039;-48
2022/10/09 10:28:58;;;;;;;7.25;2.63;;;24.20;70.30;;;;;;5076841;28;20070;-48
2022/10/09 10:31:39;;;;;;;9.82;3.38;;;24.30;73.50;;;;;;5073113;28;20055;-47
2022/10/09 10:34:15;;;;;;;7.47;2.35;;;24.00;72.40;;;;;;5073016;28;20055;-47
2022/10/09 10:36:42;;;;;;;10.80;2.88;;;24.00;74.60;;;;;;5071815;28;20048;-45
2022/10/09 10:39:22;;;;;;;7.43;2.83;;;24.00;72.70;;;;;;5059755;28;20044;-51
2022/10/09 10:41:51;;;;;;;13.88;3.28;;;23.60;70.00;;;;;;5075885;28;20080;-50
2022/10/09 10:44:41;;;;;;;9.45;3.67;;;24.20;70.70;;;;;;5078572;28;20177;-48
2022/10/09 10:47:15;;;;;;;7.20;2.80;;;24.00;70.40;;;;;;5048865;28;20044;-51
2022/10/09 10:49:41;;;;;;;6.97;3.60;;;24.30;70.60;;;;;;5073439;28;20452;-50
2022/10/09 10:52:30;;;;;;;8.70;3.50;;;24.20;69.10;;;;;;5056226;28;20036;-51
2022/10/09 10:55:14;;;;;;;8.43;3.85;;;23.80;69.00;;;;;;5067349;28;20071;-51
2022/10/09 10:57:58;;;;;;;10.48;6.13;;;23.70;68.40;;;;;;5075020;28;20152;-50
2022/10/09 11:00:27;;;;;;;8.70;3.00;;;23.70;68.00;;;;;;5071312;28;20091;-49
2022/10/09 11:03:23;;;;;;;9.68;3.47;;;24.10;69.80;;;;;;5077697;28;20044;-50
2022/10/09 11:06:04;;;;;;;9.23;4.93;;;24.80;67.40;;;;;;5057684;28;20054;-51
2022/10/09 11:08:59;;;;;;;6.63;2.53;;;24.80;66.80;;;;;;5075076;28;20114;-48
2022/10/09 11:11:43;;;;;;;10.50;2.75;;;25.00;63.70;;;;;;5072042;28;20060;-47
2022/10/09 11:14:21;;;;;;;7.10;2.45;;;25.10;63.10;;;;;;5073108;28;20050;-50
2022/10/09 11:17:31;;;;;;;6.43;2.50;;;25.10;60.60;;;;;;5052821;28;20059;-48
2022/10/09 11:20:31;;;;;;;7.50;2.40;;;25.80;59.90;;;;;;5052502;28;20060;-52
2022/10/09 11:23:45;;;;;;;10.48;3.25;;;26.20;59.00;;;;;;5074613;28;20529;-50
2022/10/09 11:26:45;;;;;;;7.88;3.63;;;26.30;58.80;;;;;;5051085;28;20048;-51
2022/10/09 11:29:17;;;;;;;9.50;3.05;;;26.00;54.90;;;;;;5074470;28;20052;-51
2022/10/09 11:32:00;;;;;;;7.18;2.50;;;25.90;55.30;;;;;;5057991;28;20475;-48
2022/10/09 11:34:36;;;;;;;6.43;3.00;;;25.60;54.30;;;;;;5069871;28;20048;-51
2022/10/09 11:37:07;;;;;;;7.45;2.85;;;25.70;54.60;;;;;;5054486;28;20131;-51
2022/10/09 11:39:35;;;;;;;7.03;3.20;;;25.70;54.40;;;;;;5070724;28;20521;-49
2022/10/09 11:42:03;;;;;;;9.38;3.45;;;25.00;53.90;;;;;;5067046;28;20072;-51
2022/10/09 11:44:54;;;;;;;8.25;2.67;;;25.90;55.30;;;;;;5075046;28;20044;-49
2022/10/09 11:47:30;;;;;;;7.75;3.17;;;25.50;53.80;;;;;;5072602;28;20048;-51
2022/10/09 11:50:02;;;;;;;9.38;3.60;;;26.10;55.00;;;;;;5067921;28;20114;-50
2022/10/09 11:52:50;;;;;;;11.65;5.50;;;26.20;54.90;;;;;;5069872;28;20127;-48
2022/10/09 11:55:26;;;;;;;8.98;3.35;;;26.40;53.00;;;;;;5074538;28;20044;-50
2022/10/09 11:57:53;;;;;;;7.78;4.45;;;26.30;52.00;;;;;;5069554;28;20044;-47
2022/10/09 12:00:31;;;;;;;7.25;3.42;;;26.10;51.80;;;;;;5069920;28;20044;-51
2022/10/09 12:03:00;;;;;;;8.48;4.80;;;25.30;51.60;;;;;;5056083;28;20093;-50
2022/10/09 12:05:35;;;;;;;13.93;9.60;;;25.30;52.50;;;;;;5047608;28;20044;-47
2022/10/09 12:08:12;;;;;;;8.93;3.60;;;25.20;52.10;;;;;;5066736;28;20518;-50
2022/10/09 12:10:52;;;;;;;10.75;6.80;;;25.50;52.20;;;;;;5086147;28;20415;-47
2022/10/09 12:13:51;;;;;;;7.47;3.20;;;25.50;52.20;;;;;;5068416;28;20515;-50
2022/10/09 12:16:33;;;;;;;8.93;3.60;;;25.80;52.60;;;;;;5071703;28;20094;-50
2022/10/09 12:19:16;;;;;;;7.20;3.38;;;25.80;52.70;;;;;;5070427;28;20059;-52
2022/10/09 12:21:56;;;;;;;8.73;4.00;;;25.60;52.80;;;;;;5053025;28;20044;-48
2022/10/09 12:24:25;;;;;;;7.85;4.60;;;24.80;53.40;;;;;;5039763;28;20040;-47
2022/10/09 12:26:55;;;;;;;9.68;4.10;;;25.20;54.00;;;;;;5074373;28;20485;-50
2022/10/09 12:29:28;;;;;;;12.25;5.32;;;25.20;53.40;;;;;;5071391;28;20048;-52
2022/10/09 12:32:01;;;;;;;7.25;3.30;;;25.50;51.70;;;;;;5072218;28;20139;-50
2022/10/09 12:34:32;;;;;;;9.60;3.35;;;26.20;52.10;;;;;;5079733;28;20044;-51
2022/10/09 12:37:14;;;;;;;8.13;3.42;;;26.50;52.10;;;;;;5065843;28;21494;-46
2022/10/09 12:39:41;;;;;;;12.50;6.78;;;26.90;51.50;;;;;;5053827;28;20055;-44
2022/10/09 12:42:21;;;;;;;10.18;3.28;;;27.10;52.90;;;;;;5068792;28;20134;-45
2022/10/09 12:44:49;;;;;;;9.60;3.35;;;26.70;49.80;;;;;;5062075;28;20044;-43
2022/10/09 12:47:25;;;;;;;11.60;4.03;;;26.80;50.40;;;;;;5071537;28;20036;-44
2022/10/09 12:50:11;;;;;;;10.63;5.53;;;27.30;51.00;;;;;;5072372;28;20076;-43
2022/10/09 12:52:47;;;;;;;8.27;3.03;;;27.00;49.90;;;;;;5075412;28;20036;-44
2022/10/09 12:55:34;;;;;;;7.13;3.22;;;27.10;50.40;;;;;;5075372;28;20040;-44
2022/10/09 12:58:22;;;;;;;7.68;3.60;;;27.10;50.30;;;;;;5075253;28;20051;-42
2022/10/09 13:00:52;;;;;;;7.50;2.72;;;26.70;49.10;;;;;;5073648;28;20040;-43
2022/10/09 13:03:33;;;;;;;7.60;3.63;;;26.60;49.00;;;;;;5075279;28;20127;-45
2022/10/09 13:06:05;;;;;;;9.07;3.63;;;26.60;48.70;;;;;;5058317;28;20083;-42
2022/10/09 13:08:35;;;;;;;5.75;2.90;;;26.60;49.40;;;;;;5058433;28;20131;-43
2022/10/09 13:11:30;;;;;;;7.20;2.78;;;26.40;48.70;;;;;;5071850;28;20044;-44
2022/10/09 13:13:56;;;;;;;8.30;3.13;;;26.10;48.30;;;;;;5078302;28;20866;-43